sensor_id;sensor_type;location;lat;lon;timestamp;P1;durP1;ratioP1;P2;durP2;ratioP2
68872;SDS011;55907;50.806;12.882;2023-04-05T00:02:41;9.8;;;6.9;;
68872;SDS011;55907;50.806;12.882;2023-04-05T00:05:43;12.9;;;9.0;;
68872;SDS011;55907;50.806;12.882;2023-04-05T00:08:44;9.0;;;7.5;;
68872;SDS011;55907;50.806;12.882;2023-04-05T00:11:46;9.4;;;7.0;;
68872;SDS011;55907;50.806;12.882;2023-04-05T00:14:48;11.1;;;7.4;;
68872;SDS011;55907;50.806;12.882;2023-04-05T00:17:49;9.7;;;6.9;;
68872;SDS011;55907;50.806;12.882;2023-04-05T00:23:53;8.5;;;6.6;;
68872;SDS011;55907;50.806;12.882;2023-04-05T00:26:54;9.4;;;6.9;;
68872;SDS011;55907;50.806;12.882;2023-04-05T00:29:56;9.3;;;6.8;;
68872;SDS011;55907;50.806;12.882;2023-04-05T00:32:57;10.1;;;7.0;;
68872;SDS011;55907;50.806;12.882;2023-04-05T00:36:07;7.7;;;6.0;;
68872;SDS011;55907;50.806;12.882;2023-04-05T00:39:00;8.1;;;6.8;;
68872;SDS011;55907;50.806;12.882;2023-04-05T00:42:02;7.2;;;5.9;;
68872;SDS011;55907;50.806;12.882;2023-04-05T00:45:04;7.5;;;6.5;;
68872;SDS011;55907;50.806;12.882;2023-04-05T00:48:05;8.0;;;7.0;;
68872;SDS011;55907;50.806;12.882;2023-04-05T00:51:07;7.2;;;6.5;;
68872;SDS011;55907;50.806;12.882;2023-04-05T00:54:08;8.7;;;6.7;;
68872;SDS011;55907;50.806;12.882;2023-04-05T00:57:10;8.1;;;6.1;;
68872;SDS011;55907;50.806;12.882;2023-04-05T01:00:12;9.3;;;6.2;;
68872;SDS011;55907;50.806;12.882;2023-04-05T01:03:13;9.0;;;6.7;;
68872;SDS011;55907;50.806;12.882;2023-04-05T01:06:16;7.7;;;6.5;;
68872;SDS011;55907;50.806;12.882;2023-04-05T01:09:20;8.1;;;6.3;;
68872;SDS011;55907;50.806;12.882;2023-04-05T01:12:18;8.7;;;6.5;;
68872;SDS011;55907;50.806;12.882;2023-04-05T01:15:19;9.1;;;6.2;;
68872;SDS011;55907;50.806;12.882;2023-04-05T01:18:21;7.1;;;6.1;;
68872;SDS011;55907;50.806;12.882;2023-04-05T01:21:34;8.9;;;6.4;;
68872;SDS011;55907;50.806;12.882;2023-04-05T01:24:29;8.3;;;6.3;;
68872;SDS011;55907;50.806;12.882;2023-04-05T01:27:28;6.5;;;5.6;;
68872;SDS011;55907;50.806;12.882;2023-04-05T01:30:29;7.2;;;6.1;;
68872;SDS011;55907;50.806;12.882;2023-04-05T01:33:30;6.7;;;5.7;;
68872;SDS011;55907;50.806;12.882;2023-04-05T01:36:33;6.8;;;6.1;;
68872;SDS011;55907;50.806;12.882;2023-04-05T01:39:32;6.9;;;6.3;;
68872;SDS011;55907;50.806;12.882;2023-04-05T01:42:34;7.4;;;6.4;;
68872;SDS011;55907;50.806;12.882;2023-04-05T01:45:35;8.0;;;6.3;;
68872;SDS011;55907;50.806;12.882;2023-04-05T01:48:37;7.4;;;6.2;;
68872;SDS011;55907;50.806;12.882;2023-04-05T01:51:39;8.2;;;6.3;;
68872;SDS011;55907;50.806;12.882;2023-04-05T01:54:40;8.3;;;6.1;;
68872;SDS011;55907;50.806;12.882;2023-04-05T01:57:42;8.4;;;6.3;;
68872;SDS011;55907;50.806;12.882;2023-04-05T02:00:43;7.0;;;5.9;;
68872;SDS011;55907;50.806;12.882;2023-04-05T02:03:45;7.6;;;5.8;;
68872;SDS011;55907;50.806;12.882;2023-04-05T02:06:47;7.3;;;5.1;;
68872;SDS011;55907;50.806;12.882;2023-04-05T02:09:48;6.5;;;5.8;;
68872;SDS011;55907;50.806;12.882;2023-04-05T02:12:50;6.6;;;5.9;;
68872;SDS011;55907;50.806;12.882;2023-04-05T02:18:54;7.3;;;5.8;;
68872;SDS011;55907;50.806;12.882;2023-04-05T02:21:55;6.6;;;5.9;;
68872;SDS011;55907;50.806;12.882;2023-04-05T02:24:56;7.1;;;5.5;;
68872;SDS011;55907;50.806;12.882;2023-04-05T02:27:58;7.5;;;5.8;;
68872;SDS011;55907;50.806;12.882;2023-04-05T02:31:00;7.1;;;5.3;;
68872;SDS011;55907;50.806;12.882;2023-04-05T02:34:01;9.6;;;6.6;;
68872;SDS011;55907;50.806;12.882;2023-04-05T02:37:03;7.8;;;6.8;;
68872;SDS011;55907;50.806;12.882;2023-04-05T02:40:05;7.7;;;6.1;;
68872;SDS011;55907;50.806;12.882;2023-04-05T02:43:06;8.0;;;6.2;;
68872;SDS011;55907;50.806;12.882;2023-04-05T02:46:08;6.2;;;5.0;;
68872;SDS011;55907;50.806;12.882;2023-04-05T02:49:09;7.4;;;5.7;;
68872;SDS011;55907;50.806;12.882;2023-04-05T02:52:11;7.7;;;5.9;;
68872;SDS011;55907;50.806;12.882;2023-04-05T02:55:12;7.8;;;6.0;;
68872;SDS011;55907;50.806;12.882;2023-04-05T02:58:14;7.1;;;5.4;;
68872;SDS011;55907;50.806;12.882;2023-04-05T03:01:16;6.8;;;5.4;;
68872;SDS011;55907;50.806;12.882;2023-04-05T03:04:17;8.0;;;5.6;;
68872;SDS011;55907;50.806;12.882;2023-04-05T03:07:19;8.2;;;5.7;;
68872;SDS011;55907;50.806;12.882;2023-04-05T03:10:20;6.5;;;5.3;;
68872;SDS011;55907;50.806;12.882;2023-04-05T03:13:22;5.5;;;4.9;;
68872;SDS011;55907;50.806;12.882;2023-04-05T03:16:24;6.8;;;5.1;;
68872;SDS011;55907;50.806;12.882;2023-04-05T03:19:25;6.4;;;5.1;;
68872;SDS011;55907;50.806;12.882;2023-04-05T03:22:27;6.3;;;5.2;;
68872;SDS011;55907;50.806;12.882;2023-04-05T03:25:29;5.7;;;5.1;;
68872;SDS011;55907;50.806;12.882;2023-04-05T03:28:30;6.0;;;5.1;;
68872;SDS011;55907;50.806;12.882;2023-04-05T03:31:32;7.8;;;5.6;;
68872;SDS011;55907;50.806;12.882;2023-04-05T03:34:33;6.6;;;5.2;;
68872;SDS011;55907;50.806;12.882;2023-04-05T03:37:35;6.1;;;5.1;;
68872;SDS011;55907;50.806;12.882;2023-04-05T03:40:37;6.7;;;5.4;;
68872;SDS011;55907;50.806;12.882;2023-04-05T03:43:38;6.5;;;5.8;;
68872;SDS011;55907;50.806;12.882;2023-04-05T03:46:40;6.8;;;5.3;;
68872;SDS011;55907;50.806;12.882;2023-04-05T03:49:41;6.4;;;5.1;;
68872;SDS011;55907;50.806;12.882;2023-04-05T03:52:43;7.6;;;5.6;;
68872;SDS011;55907;50.806;12.882;2023-04-05T03:55:45;7.7;;;6.0;;
68872;SDS011;55907;50.806;12.882;2023-04-05T03:58:46;7.0;;;5.9;;
68872;SDS011;55907;50.806;12.882;2023-04-05T04:01:48;7.7;;;5.5;;
68872;SDS011;55907;50.806;12.882;2023-04-05T04:04:49;5.4;;;4.8;;
68872;SDS011;55907;50.806;12.882;2023-04-05T04:07:51;7.0;;;5.2;;
68872;SDS011;55907;50.806;12.882;2023-04-05T04:10:53;7.2;;;5.8;;
68872;SDS011;55907;50.806;12.882;2023-04-05T04:13:54;6.3;;;5.5;;
68872;SDS011;55907;50.806;12.882;2023-04-05T04:16:56;7.0;;;6.3;;
68872;SDS011;55907;50.806;12.882;2023-04-05T04:19:57;7.6;;;6.8;;
68872;SDS011;55907;50.806;12.882;2023-04-05T04:22:59;7.4;;;6.6;;
68872;SDS011;55907;50.806;12.882;2023-04-05T04:26:01;7.2;;;6.5;;
68872;SDS011;55907;50.806;12.882;2023-04-05T04:29:02;9.3;;;6.9;;
68872;SDS011;55907;50.806;12.882;2023-04-05T04:32:04;8.0;;;7.1;;
68872;SDS011;55907;50.806;12.882;2023-04-05T04:35:06;7.6;;;6.3;;
68872;SDS011;55907;50.806;12.882;2023-04-05T04:38:07;8.1;;;6.6;;
68872;SDS011;55907;50.806;12.882;2023-04-05T04:41:09;10.5;;;7.2;;
68872;SDS011;55907;50.806;12.882;2023-04-05T04:44:10;8.8;;;6.7;;
68872;SDS011;55907;50.806;12.882;2023-04-05T04:47:12;9.7;;;6.1;;
68872;SDS011;55907;50.806;12.882;2023-04-05T04:50:14;7.1;;;6.3;;
68872;SDS011;55907;50.806;12.882;2023-04-05T04:53:15;7.8;;;6.7;;
68872;SDS011;55907;50.806;12.882;2023-04-05T04:56:17;9.1;;;6.4;;
68872;SDS011;55907;50.806;12.882;2023-04-05T04:59:18;10.2;;;7.7;;
68872;SDS011;55907;50.806;12.882;2023-04-05T05:02:22;10.0;;;6.7;;
68872;SDS011;55907;50.806;12.882;2023-04-05T05:05:21;9.3;;;6.6;;
68872;SDS011;55907;50.806;12.882;2023-04-05T05:08:23;8.1;;;6.4;;
68872;SDS011;55907;50.806;12.882;2023-04-05T05:11:25;9.3;;;6.9;;
68872;SDS011;55907;50.806;12.882;2023-04-05T05:14:26;10.7;;;7.0;;
68872;SDS011;55907;50.806;12.882;2023-04-05T05:17:28;8.8;;;7.7;;
68872;SDS011;55907;50.806;12.882;2023-04-05T05:20:29;9.8;;;7.2;;
68872;SDS011;55907;50.806;12.882;2023-04-05T05:23:31;34.1;;;18.5;;
68872;SDS011;55907;50.806;12.882;2023-04-05T05:26:33;13.8;;;8.7;;
68872;SDS011;55907;50.806;12.882;2023-04-05T05:29:34;9.6;;;7.8;;
68872;SDS011;55907;50.806;12.882;2023-04-05T05:32:36;13.6;;;6.8;;
68872;SDS011;55907;50.806;12.882;2023-04-05T05:35:37;9.3;;;7.4;;
68872;SDS011;55907;50.806;12.882;2023-04-05T05:38:39;10.1;;;8.1;;
68872;SDS011;55907;50.806;12.882;2023-04-05T05:41:41;9.7;;;7.3;;
68872;SDS011;55907;50.806;12.882;2023-04-05T05:44:42;8.4;;;7.3;;
68872;SDS011;55907;50.806;12.882;2023-04-05T05:47:44;9.9;;;6.6;;
68872;SDS011;55907;50.806;12.882;2023-04-05T05:50:46;9.4;;;7.4;;
68872;SDS011;55907;50.806;12.882;2023-04-05T05:53:47;8.9;;;7.2;;
68872;SDS011;55907;50.806;12.882;2023-04-05T05:56:49;8.3;;;7.4;;
68872;SDS011;55907;50.806;12.882;2023-04-05T05:59:50;9.2;;;7.4;;
68872;SDS011;55907;50.806;12.882;2023-04-05T06:02:52;11.2;;;7.4;;
68872;SDS011;55907;50.806;12.882;2023-04-05T06:05:54;7.8;;;7.0;;
68872;SDS011;55907;50.806;12.882;2023-04-05T06:08:55;8.1;;;7.1;;
68872;SDS011;55907;50.806;12.882;2023-04-05T06:11:57;10.1;;;7.3;;
68872;SDS011;55907;50.806;12.882;2023-04-05T06:14:59;11.2;;;8.9;;
68872;SDS011;55907;50.806;12.882;2023-04-05T06:18:00;13.2;;;11.6;;
68872;SDS011;55907;50.806;12.882;2023-04-05T06:21:02;9.1;;;8.1;;
68872;SDS011;55907;50.806;12.882;2023-04-05T06:24:03;9.4;;;8.2;;
68872;SDS011;55907;50.806;12.882;2023-04-05T06:27:05;10.4;;;8.3;;
68872;SDS011;55907;50.806;12.882;2023-04-05T06:30:07;9.9;;;8.9;;
68872;SDS011;55907;50.806;12.882;2023-04-05T06:33:08;9.3;;;8.3;;
68872;SDS011;55907;50.806;12.882;2023-04-05T06:36:09;8.6;;;7.7;;
68872;SDS011;55907;50.806;12.882;2023-04-05T06:39:11;8.5;;;7.7;;
68872;SDS011;55907;50.806;12.882;2023-04-05T06:42:13;9.6;;;7.9;;
68872;SDS011;55907;50.806;12.882;2023-04-05T06:45:14;8.8;;;7.9;;
68872;SDS011;55907;50.806;12.882;2023-04-05T06:48:16;11.9;;;8.7;;
68872;SDS011;55907;50.806;12.882;2023-04-05T06:51:17;8.5;;;7.7;;
68872;SDS011;55907;50.806;12.882;2023-04-05T06:54:19;9.1;;;7.9;;
68872;SDS011;55907;50.806;12.882;2023-04-05T06:57:20;8.1;;;7.2;;
68872;SDS011;55907;50.806;12.882;2023-04-05T07:03:24;8.9;;;7.6;;
68872;SDS011;55907;50.806;12.882;2023-04-05T07:09:27;9.1;;;8.2;;
68872;SDS011;55907;50.806;12.882;2023-04-05T07:12:28;8.9;;;7.8;;
68872;SDS011;55907;50.806;12.882;2023-04-05T07:21:33;9.3;;;8.3;;
68872;SDS011;55907;50.806;12.882;2023-04-05T07:24:35;8.7;;;7.8;;
68872;SDS011;55907;50.806;12.882;2023-04-05T07:27:36;13.1;;;9.9;;
68872;SDS011;55907;50.806;12.882;2023-04-05T07:30:38;8.7;;;7.9;;
68872;SDS011;55907;50.806;12.882;2023-04-05T07:36:41;8.2;;;7.4;;
68872;SDS011;55907;50.806;12.882;2023-04-05T07:39:43;9.0;;;8.1;;
68872;SDS011;55907;50.806;12.882;2023-04-05T07:42:44;8.3;;;7.5;;
68872;SDS011;55907;50.806;12.882;2023-04-05T08:00:57;8.1;;;6.8;;
68872;SDS011;55907;50.806;12.882;2023-04-05T08:03:55;4.9;;;3.0;;
68872;SDS011;55907;50.806;12.882;2023-04-05T08:06:57;5.0;;;2.6;;
68872;SDS011;55907;50.806;12.882;2023-04-05T08:09:58;4.4;;;2.3;;
68872;SDS011;55907;50.806;12.882;2023-04-05T08:13:00;4.1;;;2.4;;
68872;SDS011;55907;50.806;12.882;2023-04-05T08:22:04;6.2;;;3.4;;
68872;SDS011;55907;50.806;12.882;2023-04-05T08:25:06;7.2;;;2.6;;
68872;SDS011;55907;50.806;12.882;2023-04-05T08:31:09;6.7;;;2.7;;
68872;SDS011;55907;50.806;12.882;2023-04-05T08:34:10;5.7;;;2.4;;
68872;SDS011;55907;50.806;12.882;2023-04-05T08:37:12;4.0;;;2.0;;
68872;SDS011;55907;50.806;12.882;2023-04-05T08:40:13;5.1;;;2.2;;
68872;SDS011;55907;50.806;12.882;2023-04-05T08:43:17;5.0;;;2.2;;
68872;SDS011;55907;50.806;12.882;2023-04-05T08:46:16;4.2;;;2.3;;
68872;SDS011;55907;50.806;12.882;2023-04-05T08:49:18;4.4;;;2.3;;
68872;SDS011;55907;50.806;12.882;2023-04-05T08:52:19;7.6;;;2.6;;
68872;SDS011;55907;50.806;12.882;2023-04-05T08:55:21;3.9;;;2.4;;
68872;SDS011;55907;50.806;12.882;2023-04-05T09:01:24;3.5;;;2.0;;
68872;SDS011;55907;50.806;12.882;2023-04-05T09:04:25;6.5;;;2.1;;
68872;SDS011;55907;50.806;12.882;2023-04-05T09:07:27;4.3;;;2.2;;
68872;SDS011;55907;50.806;12.882;2023-04-05T09:10:28;4.4;;;2.0;;
68872;SDS011;55907;50.806;12.882;2023-04-05T09:13:30;4.2;;;1.8;;
68872;SDS011;55907;50.806;12.882;2023-04-05T09:16:32;4.1;;;2.1;;
68872;SDS011;55907;50.806;12.882;2023-04-05T09:19:33;4.2;;;1.8;;
68872;SDS011;55907;50.806;12.882;2023-04-05T09:22:41;4.9;;;2.1;;
68872;SDS011;55907;50.806;12.882;2023-04-05T09:25:37;4.2;;;2.1;;
68872;SDS011;55907;50.806;12.882;2023-04-05T09:28:39;5.8;;;2.0;;
68872;SDS011;55907;50.806;12.882;2023-04-05T09:31:39;5.4;;;2.2;;
68872;SDS011;55907;50.806;12.882;2023-04-05T09:34:41;4.9;;;2.3;;
68872;SDS011;55907;50.806;12.882;2023-04-05T09:37:47;5.7;;;3.0;;
68872;SDS011;55907;50.806;12.882;2023-04-05T09:40:44;4.7;;;3.6;;
68872;SDS011;55907;50.806;12.882;2023-04-05T09:43:45;5.0;;;3.5;;
68872;SDS011;55907;50.806;12.882;2023-04-05T09:46:47;4.3;;;2.5;;
68872;SDS011;55907;50.806;12.882;2023-04-05T09:49:48;4.1;;;2.3;;
68872;SDS011;55907;50.806;12.882;2023-04-05T09:52:50;3.1;;;1.9;;
68872;SDS011;55907;50.806;12.882;2023-04-05T09:55:51;4.9;;;2.1;;
68872;SDS011;55907;50.806;12.882;2023-04-05T09:58:57;3.9;;;2.1;;
68872;SDS011;55907;50.806;12.882;2023-04-05T10:01:54;6.3;;;2.2;;
68872;SDS011;55907;50.806;12.882;2023-04-05T10:04:56;5.8;;;2.3;;
68872;SDS011;55907;50.806;12.882;2023-04-05T10:07:57;6.3;;;3.1;;
68872;SDS011;55907;50.806;12.882;2023-04-05T10:10:59;8.4;;;3.9;;
68872;SDS011;55907;50.806;12.882;2023-04-05T10:14:01;12.5;;;6.8;;
68872;SDS011;55907;50.806;12.882;2023-04-05T10:17:06;6.6;;;3.8;;
68872;SDS011;55907;50.806;12.882;2023-04-05T10:20:08;8.4;;;5.1;;
68872;SDS011;55907;50.806;12.882;2023-04-05T10:23:06;5.1;;;2.6;;
68872;SDS011;55907;50.806;12.882;2023-04-05T10:38:16;5.9;;;3.4;;
68872;SDS011;55907;50.806;12.882;2023-04-05T10:41:14;4.3;;;2.4;;
68872;SDS011;55907;50.806;12.882;2023-04-05T10:44:16;3.7;;;2.4;;
68872;SDS011;55907;50.806;12.882;2023-04-05T10:47:18;4.5;;;2.6;;
68872;SDS011;55907;50.806;12.882;2023-04-05T10:50:20;5.1;;;2.9;;
68872;SDS011;55907;50.806;12.882;2023-04-05T10:53:20;7.7;;;3.4;;
68872;SDS011;55907;50.806;12.882;2023-04-05T10:56:22;3.8;;;2.2;;
68872;SDS011;55907;50.806;12.882;2023-04-05T10:59:23;4.2;;;2.4;;
68872;SDS011;55907;50.806;12.882;2023-04-05T11:02:25;5.3;;;2.5;;
68872;SDS011;55907;50.806;12.882;2023-04-05T11:05:28;4.2;;;2.6;;
68872;SDS011;55907;50.806;12.882;2023-04-05T11:08:28;6.4;;;3.0;;
68872;SDS011;55907;50.806;12.882;2023-04-05T11:11:31;14.0;;;7.6;;
68872;SDS011;55907;50.806;12.882;2023-04-05T11:14:34;5.4;;;2.8;;
68872;SDS011;55907;50.806;12.882;2023-04-05T11:17:32;6.0;;;2.6;;
68872;SDS011;55907;50.806;12.882;2023-04-05T11:20:41;7.0;;;3.2;;
68872;SDS011;55907;50.806;12.882;2023-04-05T11:23:58;8.9;;;5.1;;
68872;SDS011;55907;50.806;12.882;2023-04-05T11:29:46;16.1;;;8.7;;
68872;SDS011;55907;50.806;12.882;2023-04-05T11:32:41;6.3;;;3.7;;
68872;SDS011;55907;50.806;12.882;2023-04-05T11:35:41;6.4;;;3.3;;
68872;SDS011;55907;50.806;12.882;2023-04-05T11:38:43;5.6;;;3.0;;
68872;SDS011;55907;50.806;12.882;2023-04-05T11:41:44;6.2;;;2.9;;
68872;SDS011;55907;50.806;12.882;2023-04-05T11:47:47;10.1;;;6.0;;
68872;SDS011;55907;50.806;12.882;2023-04-05T11:50:49;6.1;;;3.3;;
68872;SDS011;55907;50.806;12.882;2023-04-05T11:53:50;4.3;;;2.5;;
68872;SDS011;55907;50.806;12.882;2023-04-05T11:56:52;6.7;;;3.9;;
68872;SDS011;55907;50.806;12.882;2023-04-05T11:59:54;6.5;;;4.2;;
68872;SDS011;55907;50.806;12.882;2023-04-05T12:02:55;5.8;;;3.1;;
68872;SDS011;55907;50.806;12.882;2023-04-05T12:05:57;5.6;;;2.8;;
68872;SDS011;55907;50.806;12.882;2023-04-05T12:08:58;5.4;;;2.7;;
68872;SDS011;55907;50.806;12.882;2023-04-05T12:12:00;4.3;;;3.0;;
68872;SDS011;55907;50.806;12.882;2023-04-05T12:15:02;5.3;;;3.3;;
68872;SDS011;55907;50.806;12.882;2023-04-05T12:21:06;4.4;;;3.0;;
68872;SDS011;55907;50.806;12.882;2023-04-05T12:24:06;7.1;;;3.8;;
68872;SDS011;55907;50.806;12.882;2023-04-05T12:27:07;12.9;;;7.1;;
68872;SDS011;55907;50.806;12.882;2023-04-05T12:30:10;8.3;;;4.5;;
68872;SDS011;55907;50.806;12.882;2023-04-05T12:33:10;9.2;;;5.5;;
68872;SDS011;55907;50.806;12.882;2023-04-05T12:36:12;4.6;;;2.7;;
68872;SDS011;55907;50.806;12.882;2023-04-05T12:39:14;5.2;;;3.1;;
68872;SDS011;55907;50.806;12.882;2023-04-05T12:42:16;4.7;;;3.0;;
68872;SDS011;55907;50.806;12.882;2023-04-05T12:45:17;5.1;;;2.5;;
68872;SDS011;55907;50.806;12.882;2023-04-05T12:48:19;4.5;;;2.6;;
68872;SDS011;55907;50.806;12.882;2023-04-05T12:51:20;4.1;;;2.7;;
68872;SDS011;55907;50.806;12.882;2023-04-05T12:54:22;8.0;;;3.5;;
68872;SDS011;55907;50.806;12.882;2023-04-05T12:57:30;8.4;;;3.1;;
68872;SDS011;55907;50.806;12.882;2023-04-05T13:00:25;3.7;;;2.5;;
68872;SDS011;55907;50.806;12.882;2023-04-05T13:03:26;3.6;;;2.4;;
68872;SDS011;55907;50.806;12.882;2023-04-05T13:06:27;9.0;;;4.4;;
68872;SDS011;55907;50.806;12.882;2023-04-05T13:09:29;15.0;;;6.1;;
68872;SDS011;55907;50.806;12.882;2023-04-05T13:12:30;6.0;;;3.4;;
68872;SDS011;55907;50.806;12.882;2023-04-05T13:15:32;7.0;;;3.3;;
68872;SDS011;55907;50.806;12.882;2023-04-05T13:18:33;4.6;;;3.7;;
68872;SDS011;55907;50.806;12.882;2023-04-05T13:21:35;6.5;;;4.4;;
68872;SDS011;55907;50.806;12.882;2023-04-05T13:24:36;4.5;;;4.0;;
68872;SDS011;55907;50.806;12.882;2023-04-05T13:27:38;4.9;;;4.3;;
68872;SDS011;55907;50.806;12.882;2023-04-05T13:30:39;6.4;;;4.5;;
68872;SDS011;55907;50.806;12.882;2023-04-05T13:33:41;4.9;;;4.4;;
68872;SDS011;55907;50.806;12.882;2023-04-05T13:36:42;6.3;;;5.7;;
68872;SDS011;55907;50.806;12.882;2023-04-05T13:39:44;6.4;;;5.3;;
68872;SDS011;55907;50.806;12.882;2023-04-05T13:42:46;7.0;;;6.3;;
68872;SDS011;55907;50.806;12.882;2023-04-05T13:45:47;6.2;;;5.6;;
68872;SDS011;55907;50.806;12.882;2023-04-05T13:48:49;5.8;;;5.2;;
68872;SDS011;55907;50.806;12.882;2023-04-05T13:51:50;6.0;;;5.4;;
68872;SDS011;55907;50.806;12.882;2023-04-05T13:54:52;6.2;;;4.9;;
68872;SDS011;55907;50.806;12.882;2023-04-05T13:57:53;5.4;;;4.9;;
68872;SDS011;55907;50.806;12.882;2023-04-05T14:00:55;6.0;;;5.2;;
68872;SDS011;55907;50.806;12.882;2023-04-05T14:03:56;5.2;;;4.3;;
68872;SDS011;55907;50.806;12.882;2023-04-05T14:06:58;4.6;;;3.8;;
68872;SDS011;55907;50.806;12.882;2023-04-05T14:09:59;6.9;;;3.4;;
68872;SDS011;55907;50.806;12.882;2023-04-05T14:13:01;6.4;;;3.2;;
68872;SDS011;55907;50.806;12.882;2023-04-05T14:16:03;7.2;;;3.1;;
68872;SDS011;55907;50.806;12.882;2023-04-05T14:19:04;3.9;;;2.7;;
68872;SDS011;55907;50.806;12.882;2023-04-05T14:22:06;4.9;;;3.7;;
68872;SDS011;55907;50.806;12.882;2023-04-05T14:25:07;6.8;;;5.4;;
68872;SDS011;55907;50.806;12.882;2023-04-05T14:28:09;7.3;;;6.0;;
68872;SDS011;55907;50.806;12.882;2023-04-05T14:31:10;8.8;;;6.8;;
68872;SDS011;55907;50.806;12.882;2023-04-05T14:34:12;7.9;;;7.2;;
68872;SDS011;55907;50.806;12.882;2023-04-05T14:37:13;8.4;;;7.6;;
68872;SDS011;55907;50.806;12.882;2023-04-05T14:40:15;7.8;;;7.2;;
68872;SDS011;55907;50.806;12.882;2023-04-05T14:43:16;8.2;;;7.4;;
68872;SDS011;55907;50.806;12.882;2023-04-05T14:46:18;8.3;;;7.6;;
68872;SDS011;55907;50.806;12.882;2023-04-05T14:49:19;8.7;;;7.7;;
68872;SDS011;55907;50.806;12.882;2023-04-05T14:52:21;7.5;;;6.4;;
68872;SDS011;55907;50.806;12.882;2023-04-05T14:55:22;5.5;;;4.2;;
68872;SDS011;55907;50.806;12.882;2023-04-05T14:58:24;5.7;;;3.5;;
68872;SDS011;55907;50.806;12.882;2023-04-05T15:01:25;3.6;;;2.5;;
68872;SDS011;55907;50.806;12.882;2023-04-05T15:07:28;6.7;;;2.6;;
68872;SDS011;55907;50.806;12.882;2023-04-05T15:10:30;4.7;;;2.7;;
68872;SDS011;55907;50.806;12.882;2023-04-05T15:13:31;4.0;;;2.9;;
68872;SDS011;55907;50.806;12.882;2023-04-05T15:16:33;4.5;;;3.1;;
68872;SDS011;55907;50.806;12.882;2023-04-05T15:19:34;4.8;;;3.3;;
68872;SDS011;55907;50.806;12.882;2023-04-05T15:22:36;3.9;;;3.3;;
68872;SDS011;55907;50.806;12.882;2023-04-05T15:25:38;3.5;;;2.9;;
68872;SDS011;55907;50.806;12.882;2023-04-05T15:28:39;4.4;;;3.4;;
68872;SDS011;55907;50.806;12.882;2023-04-05T15:31:41;4.6;;;3.4;;
68872;SDS011;55907;50.806;12.882;2023-04-05T16:07:59;5.2;;;2.7;;
68872;SDS011;55907;50.806;12.882;2023-04-05T16:11:01;3.7;;;2.3;;
68872;SDS011;55907;50.806;12.882;2023-04-05T16:14:02;4.8;;;2.7;;
68872;SDS011;55907;50.806;12.882;2023-04-05T16:17:04;5.4;;;2.6;;
68872;SDS011;55907;50.806;12.882;2023-04-05T16:20:06;3.9;;;2.6;;
68872;SDS011;55907;50.806;12.882;2023-04-05T16:23:07;4.3;;;3.0;;
68872;SDS011;55907;50.806;12.882;2023-04-05T16:26:08;5.1;;;3.3;;
68872;SDS011;55907;50.806;12.882;2023-04-05T16:29:10;4.4;;;3.4;;
68872;SDS011;55907;50.806;12.882;2023-04-05T16:32:11;5.0;;;3.7;;
68872;SDS011;55907;50.806;12.882;2023-04-05T16:35:13;5.5;;;3.5;;
68872;SDS011;55907;50.806;12.882;2023-04-05T16:38:14;6.9;;;5.0;;
68872;SDS011;55907;50.806;12.882;2023-04-05T16:41:16;7.3;;;5.2;;
68872;SDS011;55907;50.806;12.882;2023-04-05T16:44:17;7.0;;;6.3;;
68872;SDS011;55907;50.806;12.882;2023-04-05T16:47:19;6.9;;;6.2;;
68872;SDS011;55907;50.806;12.882;2023-04-05T16:50:20;7.8;;;7.1;;
68872;SDS011;55907;50.806;12.882;2023-04-05T16:53:22;8.8;;;7.3;;
68872;SDS011;55907;50.806;12.882;2023-04-05T16:56:24;8.3;;;7.5;;
68872;SDS011;55907;50.806;12.882;2023-04-05T16:59:25;10.9;;;9.9;;
68872;SDS011;55907;50.806;12.882;2023-04-05T17:02:27;9.2;;;8.3;;
68872;SDS011;55907;50.806;12.882;2023-04-05T17:05:28;11.6;;;8.9;;
68872;SDS011;55907;50.806;12.882;2023-04-05T17:08:30;10.1;;;9.1;;
68872;SDS011;55907;50.806;12.882;2023-04-05T17:11:31;9.8;;;8.8;;
68872;SDS011;55907;50.806;12.882;2023-04-05T17:14:33;7.9;;;7.1;;
68872;SDS011;55907;50.806;12.882;2023-04-05T17:17:34;9.0;;;8.2;;
68872;SDS011;55907;50.806;12.882;2023-04-05T17:20:36;8.6;;;7.9;;
68872;SDS011;55907;50.806;12.882;2023-04-05T17:26:39;8.4;;;7.7;;
68872;SDS011;55907;50.806;12.882;2023-04-05T17:29:40;10.4;;;8.9;;
68872;SDS011;55907;50.806;12.882;2023-04-05T17:32:42;9.9;;;8.9;;
68872;SDS011;55907;50.806;12.882;2023-04-05T17:35:43;9.8;;;8.8;;
68872;SDS011;55907;50.806;12.882;2023-04-05T17:38:45;9.7;;;8.8;;
68872;SDS011;55907;50.806;12.882;2023-04-05T17:41:47;9.4;;;8.5;;
68872;SDS011;55907;50.806;12.882;2023-04-05T17:44:48;9.6;;;8.8;;
68872;SDS011;55907;50.806;12.882;2023-04-05T17:46:27;unavailable;;;unavailable;;
68872;SDS011;55907;50.806;12.882;2023-04-05T17:47:10;9.6;;;8.8;;
68872;SDS011;55907;50.806;12.882;2023-04-05T17:47:11;9.6;;;8.8;;
68872;SDS011;55907;50.806;12.882;2023-04-05T17:47:50;10.1;;;9.2;;
68872;SDS011;55907;50.806;12.882;2023-04-05T17:50:51;9.0;;;8.2;;
68872;SDS011;55907;50.806;12.882;2023-04-05T17:53:53;10.2;;;8.3;;
68872;SDS011;55907;50.806;12.882;2023-04-05T17:56:54;11.1;;;10.0;;
68872;SDS011;55907;50.806;12.882;2023-04-05T17:59:56;9.2;;;8.4;;
68872;SDS011;55907;50.806;12.882;2023-04-05T18:02:58;9.1;;;8.3;;
68872;SDS011;55907;50.806;12.882;2023-04-05T18:05:59;8.9;;;8.1;;
68872;SDS011;55907;50.806;12.882;2023-04-05T18:09:01;9.7;;;8.8;;
68872;SDS011;55907;50.806;12.882;2023-04-05T18:12:04;45.2;;;30.0;;
68872;SDS011;55907;50.806;12.882;2023-04-05T18:15:04;16.0;;;12.4;;
68872;SDS011;55907;50.806;12.882;2023-04-05T18:18:05;11.1;;;10.0;;
68872;SDS011;55907;50.806;12.882;2023-04-05T18:21:07;10.5;;;9.6;;
68872;SDS011;55907;50.806;12.882;2023-04-05T18:24:09;9.7;;;8.8;;
68872;SDS011;55907;50.806;12.882;2023-04-05T18:27:10;9.6;;;8.6;;
68872;SDS011;55907;50.806;12.882;2023-04-05T18:30:12;23.3;;;18.0;;
68872;SDS011;55907;50.806;12.882;2023-04-05T18:33:13;10.4;;;9.3;;
68872;SDS011;55907;50.806;12.882;2023-04-05T18:36:15;10.0;;;9.0;;
68872;SDS011;55907;50.806;12.882;2023-04-05T18:39:16;10.8;;;9.8;;
68872;SDS011;55907;50.806;12.882;2023-04-05T18:42:18;9.2;;;8.3;;
68872;SDS011;55907;50.806;12.882;2023-04-05T18:45:20;10.7;;;9.7;;
68872;SDS011;55907;50.806;12.882;2023-04-05T18:48:21;10.9;;;9.7;;
68872;SDS011;55907;50.806;12.882;2023-04-05T18:51:23;10.2;;;9.3;;
68872;SDS011;55907;50.806;12.882;2023-04-05T18:54:24;10.0;;;9.1;;
68872;SDS011;55907;50.806;12.882;2023-04-05T18:57:26;9.3;;;8.4;;
68872;SDS011;55907;50.806;12.882;2023-04-05T19:00:27;9.1;;;8.2;;
68872;SDS011;55907;50.806;12.882;2023-04-05T19:03:29;10.4;;;9.3;;
68872;SDS011;55907;50.806;12.882;2023-04-05T19:06:31;9.9;;;8.9;;
68872;SDS011;55907;50.806;12.882;2023-04-05T19:09:32;9.6;;;8.7;;
68872;SDS011;55907;50.806;12.882;2023-04-05T19:12:34;10.0;;;9.1;;
68872;SDS011;55907;50.806;12.882;2023-04-05T19:15:35;9.7;;;8.8;;
68872;SDS011;55907;50.806;12.882;2023-04-05T19:18:37;10.8;;;9.9;;
68872;SDS011;55907;50.806;12.882;2023-04-05T19:21:39;24.4;;;20.9;;
68872;SDS011;55907;50.806;12.882;2023-04-05T19:24:40;17.9;;;16.0;;
68872;SDS011;55907;50.806;12.882;2023-04-05T19:27:42;10.1;;;9.1;;
68872;SDS011;55907;50.806;12.882;2023-04-05T19:30:44;10.7;;;9.7;;
68872;SDS011;55907;50.806;12.882;2023-04-05T19:33:45;10.4;;;9.3;;
68872;SDS011;55907;50.806;12.882;2023-04-05T19:36:46;10.1;;;9.1;;
68872;SDS011;55907;50.806;12.882;2023-04-05T19:39:48;9.8;;;8.8;;
68872;SDS011;55907;50.806;12.882;2023-04-05T19:42:50;11.2;;;9.9;;
68872;SDS011;55907;50.806;12.882;2023-04-05T19:45:55;18.4;;;16.1;;
68872;SDS011;55907;50.806;12.882;2023-04-05T19:48:53;40.0;;;29.6;;
68872;SDS011;55907;50.806;12.882;2023-04-05T19:51:54;12.8;;;11.4;;
68872;SDS011;55907;50.806;12.882;2023-04-05T19:54:56;10.5;;;9.4;;
68872;SDS011;55907;50.806;12.882;2023-04-05T19:57:58;10.7;;;9.6;;
68872;SDS011;55907;50.806;12.882;2023-04-05T20:00:59;10.8;;;9.7;;
68872;SDS011;55907;50.806;12.882;2023-04-05T20:04:01;9.2;;;8.2;;
68872;SDS011;55907;50.806;12.882;2023-04-05T20:04:23;unavailable;;;unavailable;;